This is the latest recevied weather packets stored in our database for station/object KO4LFZ. If no packets are shown the sender has not sent any weather packets the latest 10 day(s).
| Time | Temp. | Humidity | Pressure | Rain* | Wind** | Luminosity | Snow |
|---|---|---|---|---|---|---|---|
| 1777739180 | 18.33° C | 49% | 1017.5 hPa | 0 mm | - | 987 W/m² | - |
| 1777738878 | 17.78° C | 51% | 1017.5 hPa | 0 mm | - | 839 W/m² | - |
| 1777738575 | 17.78° C | 53% | 1017.6 hPa | 0 mm | - | 826 W/m² | - |
| 1777738272 | 17.22° C | 49% | 1017.6 hPa | 0 mm | - | 809 W/m² | - |
| 1777737970 | 17.22° C | 50% | 1017.5 hPa | 0 mm | - | 823 W/m² | - |
| 1777737668 | 17.22° C | 50% | 1017.7 hPa | 0 mm | - | 860 W/m² | - |
| 1777737366 | 16.67° C | 50% | 1017.9 hPa | 0 mm | - | 370 W/m² | - |
| 1777737063 | 16.67° C | 49% | 1017.8 hPa | 0 mm | - | 386 W/m² | - |
| 1777736759 | 17.22° C | 49% | 1017.9 hPa | 0 mm | - | 928 W/m² | - |
| 1777736136 | 17.22° C | 48% | 1017.6 hPa | 0 mm | - | 774 W/m² | - |
| 1777735828 | 16.67° C | 48% | 1017.7 hPa | 0 mm | - | 776 W/m² | - |
| 1777735525 | 16.67° C | 55% | 1017.6 hPa | 0 mm | - | 791 W/m² | - |
| 1777735223 | 16.11° C | 55% | 1017.7 hPa | 0 mm | - | 760 W/m² | - |
| 1777734919 | 16.11° C | 53% | 1017.5 hPa | 0 mm | - | 738 W/m² | - |
| 1777734617 | 15.56° C | 54% | 1017.9 hPa | 0 mm | - | 561 W/m² | - |
| 1777734314 | 15.56° C | 57% | 1017.8 hPa | 0 mm | - | 403 W/m² | - |
| 1777734010 | 15.56° C | 57% | 1017.7 hPa | 0 mm | - | 512 W/m² | - |
| 1777733706 | 15.56° C | 60% | 1017.7 hPa | 0 mm | - | 327 W/m² | - |
| 1777733403 | 15° C | 58% | 1017.7 hPa | 0 mm | - | 239 W/m² | - |
| 1777733099 | 15.56° C | 58% | 1017.9 hPa | 0 mm | - | 321 W/m² | - |
| 1777732796 | 15.56° C | 58% | 1017.9 hPa | 0 mm | - | 321 W/m² | - |
| 1777732493 | 15.56° C | 57% | 1017.7 hPa | 0 mm | - | 380 W/m² | - |
| 1777732191 | 15.56° C | 60% | 1017.7 hPa | 0 mm | - | 817 W/m² | - |
| 1777731888 | 15° C | 59% | 1017.8 hPa | 0 mm | - | 392 W/m² | - |
| 1777731584 | 14.44° C | 62% | 1017.6 hPa | 0 mm | - | 544 W/m² | - |
* Rain latest hour (hover to see other rain measurements)
** Current wind speed in m/s (hover to see current wind gust speed)